X  Schlie├čen METAR Luftfahrt Wetterdaten     LGRX Patras Araxos Agamemnon Airport
Temperatur
93°F Temperatur
61°F Taupunkt
34% Feuchtigkeit



Wind
8 MPS
13 KM/S
4 M/S
7 KTS



30°
NNO
Aktuelle Wetterlage

Klar Klar
Luftdruck 1012.87 (hPa) - 29.91 (inHg)
Sichtweite 6 (Meile) - 9.7 (Km)
Flughafen
Flughafen Code LGRX

Position : Patras Araxos Agamemnon Airport
Entfernung: 108 (mi)

Metar:
LGRX 200850Z 03007KT CAVOK 34/16 Q1013

Zeit: 20-06-2024 11:50 EEST